Time;durP1;ratioP1;P1;durP2;ratioP2;P2;SDS_P1;SDS_P2;PMS_P1;PMS_P2;Temp;Humidity;BMP_temperature;BMP_pressure;BME280_temperature;BME280_humidity;BME280_pressure;Samples;Min_cycle;Max_cycle;Signal;HPM_P1;HPM_P2
2021/01/05 00:00:36;;;;;;;54.15;41.47;;;17.00;99.90;;;;;;5127205;27;20049;-40
2021/01/05 00:03:02;;;;;;;53.15;41.78;;;16.90;99.90;;;;;;5126417;27;20046;-40
2021/01/05 00:05:27;;;;;;;52.28;41.60;;;16.90;99.90;;;;;;5126689;27;20030;-39
2021/01/05 00:07:53;;;;;;;53.15;41.92;;;16.90;99.90;;;;;;5133225;27;20051;-39
2021/01/05 00:10:19;;;;;;;54.88;41.10;;;16.90;99.90;;;;;;5128239;27;20555;-40
2021/01/05 00:12:46;;;;;;;52.75;40.28;;;16.90;99.90;;;;;;5125511;27;20125;-40
2021/01/05 00:15:13;;;;;;;49.33;39.08;;;16.80;99.90;;;;;;5126811;27;20023;-40
2021/01/05 00:17:39;;;;;;;52.80;39.65;;;16.80;99.90;;;;;;5126532;27;20059;-40
2021/01/05 00:20:18;;;;;;;44.90;35.30;;;16.80;99.90;;;;;;5128100;27;20027;-40
2021/01/05 00:22:45;;;;;;;50.75;36.83;;;16.70;99.90;;;;;;5134939;27;20034;-39
2021/01/05 00:25:12;;;;;;;47.33;36.95;;;16.70;99.90;;;;;;5127565;27;20384;-39
2021/01/05 00:27:38;;;;;;;;;;;16.70;99.90;;;;;;5120732;27;20028;-40
2021/01/05 00:30:25;;;;;;;45.65;34.10;;;16.60;99.90;;;;;;5130358;27;19911;-40
2021/01/05 00:32:52;;;;;;;44.67;31.67;;;16.70;99.90;;;;;;5124521;27;20422;-40
2021/01/05 00:35:23;;;;;;;43.47;33.55;;;16.60;99.90;;;;;;5126652;27;20324;-39
2021/01/05 00:37:50;;;;;;;39.92;31.45;;;16.50;99.90;;;;;;5132949;27;20095;-40
2021/01/05 00:40:16;;;;;;;39.92;30.92;;;16.50;99.90;;;;;;5120381;27;20762;-40
2021/01/05 00:42:43;;;;;;;38.60;31.02;;;16.50;99.90;;;;;;5122168;27;20028;-40
2021/01/05 00:45:10;;;;;;;39.13;30.45;;;16.50;99.90;;;;;;5125965;27;20381;-40
2021/01/05 00:47:35;;;;;;;37.83;28.70;;;16.50;99.90;;;;;;5119434;27;20026;-40
2021/01/05 00:50:02;;;;;;;35.08;27.95;;;16.40;99.90;;;;;;5126607;27;20019;-40
2021/01/05 00:52:28;;;;;;;34.70;26.80;;;16.40;99.90;;;;;;5127449;27;20023;-40
2021/01/05 00:54:54;;;;;;;37.33;28.83;;;16.40;99.90;;;;;;5120246;27;20024;-40
2021/01/05 00:57:19;;;;;;;36.63;27.45;;;16.30;99.90;;;;;;5131005;27;20039;-40
2021/01/05 00:59:46;;;;;;;35.08;27.23;;;16.30;99.90;;;;;;5125841;27;20023;-40
2021/01/05 01:02:13;;;;;;;32.65;26.00;;;16.30;99.90;;;;;;5125349;27;20165;-40
2021/01/05 01:04:39;;;;;;;34.78;26.55;;;16.30;99.90;;;;;;5129575;27;20027;-40
2021/01/05 01:07:05;;;;;;;31.77;25.90;;;16.30;99.90;;;;;;5130611;27;20027;-40
2021/01/05 01:09:32;;;;;;;33.03;24.55;;;16.30;99.90;;;;;;5129847;27;20491;-40
2021/01/05 01:12:05;;;;;;;31.75;24.58;;;16.30;99.90;;;;;;5126988;27;20024;-41
2021/01/05 01:14:32;;;;;;;31.52;24.13;;;16.20;99.90;;;;;;5124163;27;20464;-40
2021/01/05 01:16:58;;;;;;;29.20;23.25;;;16.10;99.90;;;;;;5121931;27;20099;-40
2021/01/05 01:19:24;;;;;;;31.90;23.08;;;16.10;99.90;;;;;;5127365;27;20081;-40
2021/01/05 01:21:52;;;;;;;29.77;24.35;;;16.10;99.90;;;;;;5122530;27;20034;-40
2021/01/05 01:24:18;;;;;;;;;;;16.10;99.90;;;;;;5128104;27;20030;-40
2021/01/05 01:26:45;;;;;;;28.85;21.55;;;16.10;99.90;;;;;;5125659;27;19919;-40
2021/01/05 01:29:15;;;;;;;29.15;22.40;;;16.10;99.90;;;;;;5126565;27;20136;-40
2021/01/05 01:31:40;;;;;;;30.23;21.20;;;16.10;99.90;;;;;;5126580;27;20051;-39
2021/01/05 01:34:06;;;;;;;26.25;20.48;;;16.10;99.90;;;;;;5117772;27;20104;-40
2021/01/05 01:36:32;;;;;;;27.77;20.73;;;16.10;99.90;;;;;;5130667;27;20022;-39
2021/01/05 01:38:58;;;;;;;28.90;22.00;;;16.10;99.90;;;;;;5125478;27;20035;-40
2021/01/05 01:41:24;;;;;;;25.17;19.95;;;16.10;99.90;;;;;;5123000;27;20055;-40
2021/01/05 01:43:49;;;;;;;24.77;18.52;;;16.10;99.90;;;;;;5119332;27;20019;-41
2021/01/05 01:46:15;;;;;;;23.75;18.05;;;16.00;99.90;;;;;;5130118;27;20182;-40
2021/01/05 01:48:43;;;;;;;24.25;18.90;;;16.00;99.90;;;;;;5128720;27;20081;-40
2021/01/05 01:51:11;;;;;;;24.27;18.35;;;16.00;99.90;;;;;;5126940;27;20019;-41
2021/01/05 01:53:43;;;;;;;23.58;17.80;;;16.00;99.90;;;;;;5123173;27;20019;-40
2021/01/05 01:56:18;;;;;;;21.85;16.80;;;16.00;99.90;;;;;;5124287;27;20096;-40
2021/01/05 01:59:19;;;;;;;23.08;17.90;;;15.90;99.90;;;;;;5122254;27;20529;-40
2021/01/05 02:01:59;;;;;;;21.42;16.60;;;15.90;99.90;;;;;;5109343;27;20066;-40
2021/01/05 02:05:01;;;;;;;21.17;16.05;;;15.90;99.90;;;;;;5127759;27;20345;-40
2021/01/05 02:07:48;;;;;;;24.77;17.02;;;15.90;99.90;;;;;;5129009;27;20023;-40
2021/01/05 02:10:41;;;;;;;18.75;15.75;;;15.90;99.90;;;;;;5127289;27;20084;-40
2021/01/05 02:13:16;;;;;;;20.92;16.17;;;15.90;99.90;;;;;;5124316;27;20042;-40
2021/01/05 02:15:56;;;;;;;21.20;16.38;;;15.90;99.90;;;;;;5124270;27;20057;-40
2021/01/05 02:18:49;;;;;;;17.92;14.80;;;15.90;99.90;;;;;;5126865;27;20031;-40
2021/01/05 02:21:28;;;;;;;16.50;14.55;;;15.90;99.90;;;;;;5121939;27;20028;-40
2021/01/05 02:24:29;;;;;;;22.50;14.18;;;15.80;99.90;;;;;;5124662;27;20047;-40
2021/01/05 02:27:08;;;;;;;19.02;13.98;;;15.80;99.90;;;;;;5056759;28;20068;-40
2021/01/05 02:29:47;;;;;;;17.17;12.52;;;15.80;99.90;;;;;;5062634;28;20040;-40
2021/01/05 02:32:22;;;;;;;21.75;14.25;;;15.70;99.90;;;;;;5058751;28;20028;-40
2021/01/05 02:35:24;;;;;;;17.25;12.82;;;15.70;99.90;;;;;;5052383;28;20033;-40
2021/01/05 02:38:07;;;;;;;16.65;12.07;;;15.80;99.90;;;;;;5061488;28;20036;-40
2021/01/05 02:41:03;;;;;;;14.82;12.18;;;15.80;99.90;;;;;;5052339;28;20069;-41
2021/01/05 02:43:49;;;;;;;16.25;12.48;;;15.70;99.90;;;;;;5056116;28;20107;-41
2021/01/05 02:46:27;;;;;;;13.13;11.20;;;15.70;99.90;;;;;;5060422;28;20028;-41
2021/01/05 02:48:55;;;;;;;;;;;15.70;99.90;;;;;;5053265;28;20045;-40
2021/01/05 02:51:37;;;;;;;14.55;11.70;;;15.70;99.90;;;;;;5060437;28;19991;-41
2021/01/05 02:54:18;;;;;;;16.20;11.75;;;15.70;99.90;;;;;;5062014;28;20175;-41
2021/01/05 02:57:02;;;;;;;16.60;11.15;;;15.70;99.90;;;;;;5058178;28;20666;-41
2021/01/05 03:00:00;;;;;;;12.30;10.23;;;15.60;99.90;;;;;;5053570;28;20032;-41
2021/01/05 03:02:51;;;;;;;12.77;9.75;;;15.60;99.90;;;;;;5123857;27;20550;-41
2021/01/05 03:05:16;;;;;;;13.82;10.13;;;15.60;99.90;;;;;;5118265;27;20031;-41
2021/01/05 03:07:45;;;;;;;13.20;9.75;;;15.60;99.90;;;;;;5119789;28;20053;-41
2021/01/05 03:10:19;;;;;;;10.80;9.38;;;15.60;99.90;;;;;;5126503;28;20098;-41
2021/01/05 03:12:54;;;;;;;14.50;9.50;;;15.60;99.90;;;;;;5125548;28;20047;-41
2021/01/05 03:15:34;;;;;;;12.35;8.65;;;15.60;99.90;;;;;;5122572;28;20801;-41
2021/01/05 03:18:27;;;;;;;11.60;8.38;;;15.60;99.90;;;;;;5124795;28;20090;-41
2021/01/05 03:21:22;;;;;;;9.02;7.63;;;15.60;99.90;;;;;;5127478;28;20027;-41
2021/01/05 03:23:50;;;;;;;12.32;8.75;;;15.50;99.90;;;;;;5128737;28;20031;-41
2021/01/05 03:26:20;;;;;;;10.60;8.25;;;15.60;99.90;;;;;;5120056;28;20026;-41
2021/01/05 03:28:46;;;;;;;9.15;7.57;;;15.50;99.90;;;;;;5127533;28;20140;-41
2021/01/05 03:31:24;;;;;;;11.18;8.18;;;15.50;99.90;;;;;;5118735;28;20465;-41
2021/01/05 03:33:54;;;;;;;11.35;7.95;;;15.50;99.90;;;;;;5122566;28;20027;-39
2021/01/05 03:36:20;;;;;;;11.43;7.68;;;15.50;99.90;;;;;;5126395;28;20903;-39
2021/01/05 03:38:46;;;;;;;9.77;7.18;;;15.50;99.90;;;;;;5124024;28;20030;-40
2021/01/05 03:41:12;;;;;;;12.93;8.25;;;15.50;99.90;;;;;;5115457;28;20027;-39
2021/01/05 03:43:38;;;;;;;9.75;7.43;;;15.50;99.90;;;;;;5125020;28;20027;-40
2021/01/05 03:46:04;;;;;;;10.68;7.68;;;15.40;99.90;;;;;;5125693;28;20023;-40
2021/01/05 03:48:30;;;;;;;10.70;7.60;;;15.40;99.90;;;;;;5123686;28;20059;-40
2021/01/05 03:50:55;;;;;;;9.00;6.78;;;15.40;99.90;;;;;;5120854;28;20016;-40
2021/01/05 03:53:21;;;;;;;9.85;6.82;;;15.50;99.90;;;;;;5122840;28;20016;-40
2021/01/05 03:55:47;;;;;;;8.95;7.03;;;15.50;99.90;;;;;;5106034;28;20110;-40
2021/01/05 03:58:13;;;;;;;6.80;5.72;;;15.50;99.90;;;;;;5123257;28;20070;-40
2021/01/05 04:00:39;;;;;;;7.47;6.60;;;15.40;99.90;;;;;;5123447;28;20431;-40
2021/01/05 04:03:05;;;;;;;7.63;6.55;;;15.40;99.90;;;;;;5128824;28;20035;-40
2021/01/05 04:05:31;;;;;;;13.45;6.25;;;15.40;99.90;;;;;;5121535;28;20037;-40
2021/01/05 04:07:57;;;;;;;7.28;5.88;;;15.40;99.90;;;;;;5127219;28;20033;-40
2021/01/05 04:10:23;;;;;;;8.55;5.90;;;15.40;99.90;;;;;;5126579;28;20019;-40
2021/01/05 04:12:50;;;;;;;10.48;5.75;;;15.40;99.90;;;;;;5121774;28;20023;-40
2021/01/05 04:15:22;;;;;;;8.85;5.75;;;15.40;99.90;;;;;;5127371;27;20057;-40
2021/01/05 04:17:49;;;;;;;7.88;5.47;;;15.40;99.90;;;;;;5126068;27;20471;-40
2021/01/05 04:20:16;;;;;;;9.70;6.17;;;15.30;99.90;;;;;;5130393;27;20034;-40
2021/01/05 04:22:42;;;;;;;7.07;5.85;;;15.30;99.90;;;;;;5125225;27;20062;-41
2021/01/05 04:25:09;;;;;;;6.95;5.80;;;15.30;99.90;;;;;;5127019;27;20030;-40
2021/01/05 04:27:35;;;;;;;8.53;5.90;;;15.30;99.90;;;;;;5126430;27;20370;-40
2021/01/05 04:30:00;;;;;;;7.05;5.78;;;15.30;99.90;;;;;;5130444;27;20088;-40
2021/01/05 04:32:26;;;;;;;7.10;5.07;;;15.30;99.90;;;;;;5123339;27;20459;-40
2021/01/05 04:34:52;;;;;;;7.07;4.63;;;15.30;99.90;;;;;;5129580;27;20488;-40
2021/01/05 04:37:18;;;;;;;5.60;4.75;;;15.30;99.90;;;;;;5129256;27;20035;-40
2021/01/05 04:39:44;;;;;;;9.45;5.22;;;15.30;99.90;;;;;;5128595;27;20038;-40
2021/01/05 04:42:16;;;;;;;7.72;5.18;;;15.30;99.90;;;;;;5128447;27;20035;-40
2021/01/05 04:45:01;;;;;;;6.63;4.05;;;15.30;99.90;;;;;;5132464;27;20023;-40
2021/01/05 04:47:58;;;;;;;8.60;5.32;;;15.30;99.90;;;;;;5129018;27;20389;-40
2021/01/05 04:50:35;;;;;;;6.13;4.28;;;15.30;99.90;;;;;;5122210;27;20050;-40
2021/01/05 04:53:21;;;;;;;7.95;3.90;;;15.30;99.90;;;;;;5126316;27;20023;-40
2021/01/05 04:55:52;;;;;;;5.53;4.53;;;15.30;99.90;;;;;;5128730;27;20076;-40
2021/01/05 04:58:27;;;;;;;4.70;3.92;;;15.30;99.90;;;;;;5128064;27;20110;-40
2021/01/05 05:00:54;;;;;;;7.20;4.95;;;15.30;99.90;;;;;;5124055;27;20108;-41
2021/01/05 05:03:38;;;;;;;6.22;4.32;;;15.20;99.90;;;;;;5114132;27;20533;-41
2021/01/05 05:06:07;;;;;;;5.25;3.78;;;15.30;99.90;;;;;;5125785;27;20096;-41
2021/01/05 05:08:53;;;;;;;6.15;4.32;;;15.20;99.90;;;;;;5108945;27;20106;-40
2021/01/05 05:11:21;;;;;;;4.90;4.03;;;15.30;99.90;;;;;;5125612;27;20022;-40
2021/01/05 05:14:12;;;;;;;6.25;4.25;;;15.20;99.90;;;;;;5126743;27;20030;-41
2021/01/05 05:17:05;;;;;;;5.82;4.35;;;15.20;99.90;;;;;;5121338;27;20541;-40
2021/01/05 05:19:49;;;;;;;5.68;3.83;;;15.20;99.90;;;;;;5128890;27;20030;-41
2021/01/05 05:22:29;;;;;;;5.35;4.05;;;15.20;99.90;;;;;;5123571;27;20027;-41
2021/01/05 05:25:02;;;;;;;6.25;3.78;;;15.20;99.90;;;;;;5122622;27;20082;-41
2021/01/05 05:27:40;;;;;;;5.30;3.60;;;15.20;99.90;;;;;;5128936;27;20038;-40
2021/01/05 05:30:13;;;;;;;5.95;3.85;;;15.20;99.90;;;;;;5128205;27;20454;-40
2021/01/05 05:32:47;;;;;;;5.35;3.53;;;15.30;99.90;;;;;;5129279;27;20376;-41
2021/01/05 05:35:41;;;;;;;8.07;3.53;;;15.20;99.90;;;;;;5121343;27;20059;-39
2021/01/05 05:38:29;;;;;;;5.38;3.38;;;15.20;99.90;;;;;;5129654;27;20130;-38
2021/01/05 05:41:22;;;;;;;6.30;3.88;;;15.20;99.90;;;;;;5125063;27;20768;-39
2021/01/05 05:44:00;;;;;;;3.85;3.28;;;15.20;99.90;;;;;;5129238;27;20027;-39
2021/01/05 05:46:59;;;;;;;4.20;3.30;;;15.20;99.90;;;;;;5128901;27;20031;-38
2021/01/05 05:49:35;;;;;;;5.63;3.63;;;15.20;99.90;;;;;;5087582;27;20085;-39
2021/01/05 05:52:04;;;;;;;3.83;2.95;;;15.20;99.90;;;;;;5122300;27;20028;-39
2021/01/05 05:54:32;;;;;;;4.47;3.05;;;15.20;99.90;;;;;;5127766;27;20019;-39
2021/01/05 05:57:25;;;;;;;4.65;2.97;;;15.20;99.90;;;;;;5124277;27;20068;-39
2021/01/05 06:00:01;;;;;;;4.20;3.00;;;15.20;99.90;;;;;;5125995;27;20369;-39
2021/01/05 06:02:28;;;;;;;2.80;2.35;;;15.10;99.90;;;;;;5126253;27;20046;-40
2021/01/05 06:04:57;;;;;;;3.38;2.95;;;15.10;99.90;;;;;;5126735;27;20460;-39
2021/01/05 06:07:23;;;;;;;5.22;3.20;;;15.20;99.90;;;;;;5123217;27;20035;-39
2021/01/05 06:09:49;;;;;;;7.07;3.08;;;15.10;99.90;;;;;;5124665;27;20024;-39
2021/01/05 06:12:15;;;;;;;7.03;3.40;;;15.20;99.90;;;;;;5127892;27;20034;-39
2021/01/05 06:14:40;;;;;;;4.50;3.13;;;15.20;99.90;;;;;;5126114;27;20369;-39
2021/01/05 06:17:06;;;;;;;3.90;3.28;;;15.10;99.90;;;;;;5120931;27;20051;-38
2021/01/05 06:19:32;;;;;;;5.07;2.72;;;15.20;99.90;;;;;;5127589;27;20509;-39
2021/01/05 06:21:58;;;;;;;3.85;2.90;;;15.10;99.90;;;;;;5127397;27;20076;-39
2021/01/05 06:24:24;;;;;;;4.90;2.90;;;15.20;99.90;;;;;;5122507;27;20046;-39
2021/01/05 06:26:49;;;;;;;3.92;3.00;;;15.20;99.90;;;;;;5125072;27;20027;-39
2021/01/05 06:29:15;;;;;;;6.18;3.47;;;15.10;99.90;;;;;;5131519;27;20027;-39
2021/01/05 06:31:41;;;;;;;7.00;5.40;;;15.10;99.90;;;;;;5127899;27;20023;-39
2021/01/05 06:34:07;;;;;;;7.68;6.30;;;15.10;99.90;;;;;;5127671;27;20019;-39
2021/01/05 06:36:33;;;;;;;11.48;7.05;;;15.10;99.90;;;;;;5129425;27;20080;-39
2021/01/05 06:39:00;;;;;;;13.50;9.00;;;15.10;99.90;;;;;;5128859;27;20038;-39
2021/01/05 06:41:26;;;;;;;11.38;7.45;;;15.10;99.90;;;;;;5127472;27;20037;-39
2021/01/05 06:43:52;;;;;;;15.63;11.80;;;15.20;99.90;;;;;;5128865;27;20031;-39
2021/01/05 06:46:18;;;;;;;15.98;12.27;;;15.20;99.90;;;;;;5126408;27;20480;-39
2021/01/05 06:48:43;;;;;;;55.58;41.33;;;15.10;99.90;;;;;;5128035;27;20072;-39
2021/01/05 06:51:10;;;;;;;62.95;43.83;;;15.10;99.90;;;;;;5125207;27;20019;-39
2021/01/05 06:53:36;;;;;;;81.63;59.55;;;15.10;99.90;;;;;;5128759;27;20024;-39
2021/01/05 06:56:02;;;;;;;53.22;36.20;;;15.20;99.90;;;;;;5118218;27;20085;-33
2021/01/05 06:58:28;;;;;;;45.38;31.67;;;15.10;99.90;;;;;;5108307;27;20382;-40
2021/01/05 07:00:53;;;;;;;44.80;34.20;;;15.20;99.90;;;;;;5120701;27;20023;-40
2021/01/05 07:03:19;;;;;;;43.03;32.25;;;15.20;99.90;;;;;;5119888;27;20150;-40
2021/01/05 07:05:45;;;;;;;41.03;28.73;;;15.20;99.90;;;;;;5122450;27;20031;-40
2021/01/05 07:08:11;;;;;;;40.13;29.77;;;15.20;99.90;;;;;;5130448;27;20079;-41
2021/01/05 07:10:37;;;;;;;41.58;29.20;;;15.20;99.90;;;;;;5124119;28;20481;-40
2021/01/05 07:13:03;;;;;;;36.92;28.10;;;15.20;99.90;;;;;;5127726;28;20473;-40
2021/01/05 07:15:29;;;;;;;35.75;27.23;;;15.20;99.90;;;;;;5124928;28;20028;-40
2021/01/05 07:17:54;;;;;;;34.35;27.15;;;15.30;99.90;;;;;;5124259;28;20063;-40
2021/01/05 07:20:20;;;;;;;35.97;24.85;;;15.30;99.90;;;;;;5125021;28;20042;-39
2021/01/05 07:22:46;;;;;;;35.67;25.95;;;15.30;99.90;;;;;;5124080;28;20019;-39
2021/01/05 07:25:14;;;;;;;32.78;23.60;;;15.30;99.90;;;;;;5130374;28;20079;-40
2021/01/05 07:27:40;;;;;;;;;;;15.30;99.90;;;;;;5130277;28;20031;-40
2021/01/05 07:30:08;;;;;;;29.50;21.40;;;15.30;99.90;;;;;;5129167;28;20213;-40
2021/01/05 07:32:34;;;;;;;35.95;22.65;;;15.30;99.90;;;;;;5106496;28;20020;-40
2021/01/05 07:35:00;;;;;;;24.55;18.85;;;15.40;99.90;;;;;;5124139;28;20098;-40
2021/01/05 07:37:30;;;;;;;29.77;19.50;;;15.30;99.90;;;;;;5123769;28;20116;-40
2021/01/05 07:39:57;;;;;;;25.52;18.33;;;15.40;99.90;;;;;;5124890;28;20034;-40
2021/01/05 07:42:26;;;;;;;22.17;16.65;;;15.40;99.90;;;;;;5123887;28;20020;-40
2021/01/05 07:44:54;;;;;;;23.65;17.83;;;15.40;99.90;;;;;;5119036;28;20476;-40
2021/01/05 07:47:29;;;;;;;23.08;17.45;;;15.40;99.90;;;;;;5124958;28;20032;-40
2021/01/05 07:49:55;;;;;;;25.33;17.70;;;15.50;99.90;;;;;;5123944;27;20031;-40
2021/01/05 07:52:38;;;;;;;22.10;16.08;;;15.50;99.90;;;;;;5125963;27;20015;-34
2021/01/05 07:55:06;;;;;;;24.33;16.38;;;15.50;99.90;;;;;;5127083;27;20035;-34
2021/01/05 07:57:32;;;;;;;28.10;16.02;;;15.60;99.90;;;;;;5131785;27;20080;-34
2021/01/05 07:59:58;;;;;;;22.45;16.05;;;15.60;99.90;;;;;;5127609;27;20071;-33
2021/01/05 08:02:24;;;;;;;26.05;17.77;;;15.60;99.90;;;;;;5128029;27;20026;-35
2021/01/05 08:04:50;;;;;;;23.35;16.73;;;15.60;99.90;;;;;;5128183;27;20019;-34
2021/01/05 08:07:16;;;;;;;21.58;15.73;;;15.60;99.90;;;;;;5128225;27;20034;-34
2021/01/05 08:09:42;;;;;;;23.20;16.55;;;15.60;99.90;;;;;;5129667;27;20034;-34
2021/01/05 08:12:26;;;;;;;33.17;23.33;;;15.60;99.90;;;;;;5128423;27;20038;-34
2021/01/05 08:14:52;;;;;;;39.53;28.98;;;15.60;99.90;;;;;;5101961;27;20031;-34
2021/01/05 08:17:18;;;;;;;38.22;25.55;;;15.70;99.90;;;;;;5133015;27;20047;-34
2021/01/05 08:19:45;;;;;;;54.25;38.83;;;15.60;99.90;;;;;;5128429;27;20534;-34
2021/01/05 08:22:12;;;;;;;53.03;38.83;;;15.60;99.90;;;;;;5134300;27;20114;-34
2021/01/05 08:24:38;;;;;;;60.45;42.85;;;15.60;99.90;;;;;;5128117;27;20507;-34
2021/01/05 08:27:06;;;;;;;62.88;45.33;;;15.50;99.90;;;;;;5132899;27;20031;-34
2021/01/05 08:29:32;;;;;;;61.60;42.63;;;15.60;99.90;;;;;;5134340;27;20019;-34
2021/01/05 08:31:58;;;;;;;54.00;39.55;;;15.60;99.90;;;;;;5131533;27;20135;-34
2021/01/05 08:34:24;;;;;;;55.78;38.42;;;15.70;99.90;;;;;;5127532;27;20071;-34
2021/01/05 08:36:50;;;;;;;49.28;34.63;;;15.80;99.90;;;;;;5132262;27;20088;-34
2021/01/05 08:39:15;;;;;;;46.00;33.03;;;15.80;99.90;;;;;;5122301;27;20041;-34
2021/01/05 08:41:43;;;;;;;45.75;32.90;;;15.70;99.90;;;;;;5122459;27;20096;-34
2021/01/05 08:44:10;;;;;;;56.13;35.20;;;15.70;99.90;;;;;;5127691;27;20015;-34
2021/01/05 08:46:36;;;;;;;53.75;37.85;;;15.70;99.90;;;;;;5116539;27;20035;-34
2021/01/05 08:49:02;;;;;;;56.28;39.08;;;15.60;99.90;;;;;;5129013;27;20023;-33
2021/01/05 08:51:29;;;;;;;57.05;38.38;;;15.70;99.90;;;;;;5135335;27;20377;-33
2021/01/05 08:53:55;;;;;;;50.30;35.53;;;15.80;99.90;;;;;;5133817;27;20019;-33
2021/01/05 08:56:23;;;;;;;46.85;33.72;;;15.80;99.90;;;;;;5117637;27;20410;-33
2021/01/05 08:58:50;;;;;;;49.42;32.05;;;15.80;99.90;;;;;;5134199;27;20019;-33
2021/01/05 09:01:16;;;;;;;41.85;29.38;;;15.80;99.90;;;;;;5132853;27;20082;-33
2021/01/05 09:03:42;;;;;;;41.78;28.55;;;15.80;99.90;;;;;;5129055;27;20481;-33
2021/01/05 09:06:09;;;;;;;41.83;28.00;;;15.90;99.90;;;;;;5134198;27;20022;-33
2021/01/05 09:08:36;;;;;;;37.35;26.00;;;15.90;99.90;;;;;;5117187;27;20019;-33
2021/01/05 09:11:05;;;;;;;39.33;25.75;;;15.90;99.90;;;;;;5134271;27;20421;-33
2021/01/05 09:13:31;;;;;;;38.83;25.02;;;15.90;99.90;;;;;;5132104;27;20023;-33
2021/01/05 09:15:57;;;;;;;42.05;25.40;;;15.90;99.90;;;;;;5132830;27;20114;-33
2021/01/05 09:18:23;;;;;;;39.83;24.90;;;15.90;99.90;;;;;;5124785;27;20376;-33
2021/01/05 09:20:55;;;;;;;37.75;24.25;;;16.00;99.90;;;;;;5122265;27;20073;-33
2021/01/05 09:23:23;;;;;;;32.92;22.35;;;16.10;99.90;;;;;;5130531;27;20026;-33
2021/01/05 09:25:53;;;;;;;32.25;20.25;;;16.20;99.90;;;;;;5113376;28;20106;-33
2021/01/05 09:28:20;;;;;;;29.33;20.30;;;16.20;99.90;;;;;;5124001;27;20039;-33
2021/01/05 09:30:50;;;;;;;37.30;21.75;;;16.20;99.90;;;;;;5131667;27;20025;-33
2021/01/05 09:33:18;;;;;;;30.15;20.58;;;16.30;99.90;;;;;;5124863;27;20079;-33
2021/01/05 09:35:44;;;;;;;31.55;22.02;;;16.30;99.90;;;;;;5129181;27;20023;-33
2021/01/05 09:38:11;;;;;;;33.17;20.15;;;16.30;99.90;;;;;;5131375;27;20052;-33
2021/01/05 09:40:38;;;;;;;30.33;17.35;;;16.40;99.90;;;;;;5110106;27;20380;-33
2021/01/05 09:43:06;;;;;;;24.60;17.13;;;16.40;99.90;;;;;;5125648;27;20030;-33
2021/01/05 09:45:32;;;;;;;27.75;17.95;;;16.30;99.90;;;;;;5131137;27;20023;-33
2021/01/05 09:48:08;;;;;;;24.60;16.23;;;16.30;99.90;;;;;;5128336;27;20038;-38
2021/01/05 09:50:35;;;;;;;25.93;18.13;;;16.40;99.90;;;;;;5128975;27;20023;-38
2021/01/05 09:53:02;;;;;;;24.52;15.23;;;16.50;99.90;;;;;;5132609;27;20255;-38
2021/01/05 09:55:28;;;;;;;18.77;13.93;;;16.50;99.90;;;;;;5131214;27;20068;-38
2021/01/05 09:57:54;;;;;;;22.58;14.13;;;16.60;99.90;;;;;;5127749;27;20426;-38
2021/01/05 10:00:21;;;;;;;23.90;15.27;;;16.70;99.90;;;;;;5128005;27;20118;-38
2021/01/05 10:02:47;;;;;;;56.47;27.90;;;16.70;99.90;;;;;;5129096;27;20551;-38
2021/01/05 10:05:14;;;;;;;41.53;29.48;;;16.80;99.90;;;;;;5130406;27;20088;-38
2021/01/05 10:07:40;;;;;;;35.13;25.55;;;16.90;99.90;;;;;;5131682;27;20102;-38
2021/01/05 10:10:13;;;;;;;36.03;24.67;;;16.90;99.90;;;;;;5130279;27;20464;-38
2021/01/05 10:12:39;;;;;;;32.33;19.35;;;16.90;99.90;;;;;;5129560;27;20026;-38
2021/01/05 10:15:05;;;;;;;23.05;16.88;;;16.80;99.90;;;;;;5129793;27;20381;-38
2021/01/05 10:17:31;;;;;;;30.60;15.77;;;16.60;99.90;;;;;;5123437;27;20481;-38
2021/01/05 10:19:57;;;;;;;21.27;15.00;;;16.60;99.90;;;;;;5124164;27;20023;-38
2021/01/05 10:22:23;;;;;;;25.17;15.20;;;16.70;99.90;;;;;;5127413;27;20502;-38
2021/01/05 10:24:49;;;;;;;20.20;13.75;;;16.80;99.90;;;;;;5128081;27;20026;-38
2021/01/05 10:27:15;;;;;;;27.77;16.17;;;16.60;99.90;;;;;;5113224;27;20027;-38
2021/01/05 10:29:40;;;;;;;19.83;13.43;;;16.80;99.90;;;;;;5110010;27;20076;-37
2021/01/05 10:32:06;;;;;;;20.20;13.57;;;16.60;99.90;;;;;;5130417;27;20075;-40
2021/01/05 10:34:32;;;;;;;25.55;13.27;;;16.60;99.90;;;;;;5131270;27;20024;-38
2021/01/05 10:36:59;;;;;;;28.88;14.60;;;16.70;99.90;;;;;;5130229;27;20038;-38
2021/01/05 10:39:29;;;;;;;20.65;12.32;;;16.70;99.90;;;;;;5127770;27;20027;-39
2021/01/05 10:41:55;;;;;;;17.95;10.45;;;16.70;99.90;;;;;;5131074;27;20035;-39
2021/01/05 10:44:22;;;;;;;14.05;9.65;;;16.70;99.90;;;;;;5130613;27;20058;-39
2021/01/05 10:46:48;;;;;;;16.45;9.15;;;16.80;99.90;;;;;;5124686;27;20039;-39
2021/01/05 10:49:16;;;;;;;14.27;10.15;;;16.80;99.90;;;;;;5124997;27;20023;-39
2021/01/05 10:51:49;;;;;;;20.25;13.90;;;17.00;99.90;;;;;;5129998;27;20032;-39
2021/01/05 10:54:17;;;;;;;26.20;14.13;;;17.10;99.90;;;;;;5125626;27;20114;-39
2021/01/05 10:56:45;;;;;;;16.20;10.20;;;17.30;99.90;;;;;;5126181;27;20083;-39
2021/01/05 10:59:14;;;;;;;21.42;14.63;;;17.30;99.90;;;;;;5122911;27;20506;-39
2021/01/05 11:01:40;;;;;;;19.17;13.57;;;17.50;99.90;;;;;;5122240;28;20234;-39
2021/01/05 11:04:06;;;;;;;18.67;11.60;;;17.60;99.90;;;;;;5124564;27;20019;-39
2021/01/05 11:06:32;;;;;;;14.43;8.40;;;17.60;99.90;;;;;;5123273;27;20023;-39
2021/01/05 11:08:58;;;;;;;20.48;10.68;;;17.70;99.90;;;;;;5111267;27;20019;-39
2021/01/05 11:11:24;;;;;;;16.55;10.05;;;17.90;99.90;;;;;;5128101;28;20023;-39
2021/01/05 11:13:50;;;;;;;17.48;12.40;;;18.00;99.90;;;;;;5125069;28;20412;-39
2021/01/05 11:16:16;;;;;;;16.25;9.07;;;18.10;99.90;;;;;;5124876;28;20038;-39
2021/01/05 11:18:43;;;;;;;14.32;10.20;;;18.20;99.90;;;;;;5119040;28;20043;-39
2021/01/05 11:21:15;;;;;;;11.65;8.90;;;18.30;99.90;;;;;;5124950;28;20019;-39
2021/01/05 11:23:41;;;;;;;14.70;9.00;;;18.40;99.90;;;;;;5131130;27;20023;-39
2021/01/05 11:26:09;;;;;;;10.82;7.57;;;18.40;99.90;;;;;;5132722;27;20025;-39
2021/01/05 11:28:36;;;;;;;27.67;18.25;;;18.60;99.90;;;;;;5128539;27;20019;-37
2021/01/05 11:31:02;;;;;;;33.10;27.15;;;18.80;99.90;;;;;;5132397;27;20027;-37
2021/01/05 11:33:27;;;;;;;46.45;38.20;;;19.00;99.90;;;;;;5135061;27;20023;-33
2021/01/05 11:35:53;;;;;;;54.85;42.22;;;19.20;99.90;;;;;;5130938;27;20019;-33
2021/01/05 11:38:19;;;;;;;56.00;46.53;;;19.20;99.90;;;;;;5135501;27;20015;-33
2021/01/05 11:40:45;;;;;;;53.60;45.60;;;19.10;99.90;;;;;;5131292;27;20023;-33
2021/01/05 11:43:11;;;;;;;54.17;42.00;;;19.10;99.90;;;;;;5130318;27;20471;-33
2021/01/05 11:45:37;;;;;;;105.28;78.68;;;19.20;99.90;;;;;;5133339;27;20120;-33
2021/01/05 11:48:04;;;;;;;128.98;99.68;;;19.30;99.90;;;;;;5134935;27;20035;-33
2021/01/05 11:50:30;;;;;;;121.72;92.40;;;19.30;99.90;;;;;;5132382;27;20469;-34
2021/01/05 11:52:55;;;;;;;117.25;91.85;;;19.30;99.90;;;;;;5135317;27;20012;-33
2021/01/05 11:55:21;;;;;;;107.80;82.90;;;19.30;99.90;;;;;;5116539;27;20095;-37
2021/01/05 11:57:47;;;;;;;89.07;68.05;;;19.30;99.90;;;;;;5130773;27;20377;-33
2021/01/05 12:00:18;;;;;;;91.20;71.90;;;19.40;99.90;;;;;;5135818;27;20027;-33
2021/01/05 12:02:44;;;;;;;89.35;69.28;;;19.40;99.90;;;;;;5136191;27;20050;-33
2021/01/05 12:05:14;;;;;;;81.20;67.97;;;19.40;99.90;;;;;;5133959;27;20468;-33
2021/01/05 12:07:40;;;;;;;69.68;53.97;;;19.50;99.90;;;;;;5133236;27;20046;-33
2021/01/05 12:10:07;;;;;;;64.82;53.33;;;19.40;99.90;;;;;;5130214;27;20023;-34
2021/01/05 12:12:33;;;;;;;54.88;43.10;;;19.60;99.90;;;;;;5136217;27;20038;-33
2021/01/05 12:14:59;;;;;;;55.63;44.63;;;19.80;99.90;;;;;;5130919;27;20476;-33
2021/01/05 12:17:26;;;;;;;65.43;49.90;;;20.40;99.90;;;;;;5130651;27;20047;-33
2021/01/05 12:19:53;;;;;;;55.00;44.92;;;21.00;99.90;;;;;;5111554;27;20480;-33
2021/01/05 12:22:19;;;;;;;55.50;41.88;;;21.50;99.90;;;;;;5131996;27;20039;-33
2021/01/05 12:24:45;;;;;;;49.85;41.10;;;22.10;99.90;;;;;;5129078;27;20097;-33
2021/01/05 12:27:14;;;;;;;48.63;39.88;;;22.80;99.90;;;;;;5127501;27;20027;-34
2021/01/05 12:29:43;;;;;;;46.10;36.40;;;22.60;99.90;;;;;;5131219;27;20023;-34
2021/01/05 12:32:13;;;;;;;34.95;27.63;;;22.50;99.90;;;;;;5115834;27;20015;-34
2021/01/05 12:34:44;;;;;;;33.03;26.45;;;22.10;99.90;;;;;;5127768;27;20023;-34
2021/01/05 12:37:16;;;;;;;33.72;26.95;;;21.80;99.90;;;;;;5131452;27;20027;-34
2021/01/05 12:39:43;;;;;;;34.70;27.13;;;21.60;99.90;;;;;;5134511;27;20023;-39
2021/01/05 12:42:13;;;;;;;31.70;24.25;;;21.50;99.90;;;;;;5114258;27;20098;-39
2021/01/05 12:44:39;;;;;;;30.48;24.70;;;21.20;99.90;;;;;;5114351;27;20541;-39
2021/01/05 12:47:06;;;;;;;16.95;12.85;;;21.10;99.90;;;;;;5131394;27;20027;-39